Time;durP1;ratioP1;P1;durP2;ratioP2;P2;SDS_P1;SDS_P2;PMS_P1;PMS_P2;Temp;Humidity;BMP_temperature;BMP_pressure;BME280_temperature;BME280_humidity;BME280_pressure;Samples;Min_cycle;Max_cycle;Signal;HPM_P1;HPM_P2
2021/09/15 00:01:34;;;;;;;26.65;24.15;;;;;;;;;;5012547;28;20112;-69
2021/09/15 00:04:01;;;;;;;26.73;24.35;;;;;;;;;;5017790;28;20060;-69
2021/09/15 00:06:27;;;;;;;26.92;24.52;;;;;;;;;;5013611;28;20042;-69
2021/09/15 00:08:53;;;;;;;27.58;25.15;;;;;;;;;;5020833;28;20037;-69
2021/09/15 00:11:19;;;;;;;25.58;23.48;;;;;;;;;;5018674;28;20037;-69
2021/09/15 00:13:46;;;;;;;28.45;25.85;;;;;;;;;;5014555;28;20042;-69
2021/09/15 00:16:12;;;;;;;29.20;26.40;;;;;;;;;;5017659;28;20116;-69
2021/09/15 00:18:38;;;;;;;25.52;23.25;;;;;;;;;;4995409;28;20288;-69
2021/09/15 00:21:04;;;;;;;28.10;25.58;;;;;;;;;;5014557;28;20501;-69
2021/09/15 00:23:30;;;;;;;26.75;24.23;;;;;;;;;;5013515;28;20553;-69
2021/09/15 00:25:56;;;;;;;29.70;26.90;;;;;;;;;;5017871;28;20674;-69
2021/09/15 00:28:22;;;;;;;29.40;26.73;;;;;;;;;;5015581;28;20478;-69
2021/09/15 00:30:48;;;;;;;30.48;27.58;;;;;;;;;;5015957;28;20092;-69
2021/09/15 00:33:14;;;;;;;33.08;29.73;;;;;;;;;;5018830;28;20053;-69
2021/09/15 00:35:40;;;;;;;31.85;28.95;;;;;;;;;;5025280;28;20106;-69
2021/09/15 00:38:06;;;;;;;29.65;26.98;;;;;;;;;;5011323;28;20037;-69
2021/09/15 00:40:33;;;;;;;30.45;27.52;;;;;;;;;;5009642;28;20069;-69
2021/09/15 00:42:59;;;;;;;35.40;31.98;;;;;;;;;;5011761;28;20184;-69
2021/09/15 00:45:25;;;;;;;34.55;31.13;;;;;;;;;;5017115;28;20041;-69
2021/09/15 00:47:51;;;;;;;37.35;33.72;;;;;;;;;;5020530;28;20123;-70
2021/09/15 00:50:17;;;;;;;35.45;31.65;;;;;;;;;;5020410;28;20068;-69
2021/09/15 00:52:43;;;;;;;38.63;34.58;;;;;;;;;;5017168;28;20048;-69
2021/09/15 00:55:10;;;;;;;36.15;32.58;;;;;;;;;;5018317;28;20173;-69
2021/09/15 00:57:36;;;;;;;38.70;34.65;;;;;;;;;;5024500;28;20100;-69
2021/09/15 01:00:02;;;;;;;35.15;31.77;;;;;;;;;;5011518;28;20055;-69
2021/09/15 01:02:29;;;;;;;41.90;37.53;;;;;;;;;;5018912;28;20161;-69
2021/09/15 01:04:55;;;;;;;38.05;34.35;;;;;;;;;;5014412;28;20057;-69
2021/09/15 01:07:21;;;;;;;42.58;38.13;;;;;;;;;;5023124;28;20064;-69
2021/09/15 01:09:48;;;;;;;41.45;37.33;;;;;;;;;;5009547;28;20132;-69
2021/09/15 01:12:14;;;;;;;44.80;40.03;;;;;;;;;;5019205;28;20124;-69
2021/09/15 01:14:41;;;;;;;47.35;41.83;;;;;;;;;;5015732;28;20034;-69
2021/09/15 01:17:07;;;;;;;41.25;37.08;;;;;;;;;;5019620;28;20076;-69
2021/09/15 01:19:34;;;;;;;35.08;31.63;;;;;;;;;;5011018;28;20033;-69
2021/09/15 01:22:00;;;;;;;41.30;36.90;;;;;;;;;;5017638;28;20041;-69
2021/09/15 01:24:27;;;;;;;44.53;39.97;;;;;;;;;;5014066;28;20040;-69
2021/09/15 01:26:53;;;;;;;42.88;38.22;;;;;;;;;;5015841;28;20443;-69
2021/09/15 01:29:21;;;;;;;47.28;42.28;;;;;;;;;;5013243;28;20128;-69
2021/09/15 01:31:57;;;;;;;42.85;38.65;;;;;;;;;;5016701;28;20057;-69
2021/09/15 01:34:23;;;;;;;57.17;45.47;;;;;;;;;;5024052;28;20068;-69
2021/09/15 01:36:50;;;;;;;53.95;46.38;;;;;;;;;;5014149;28;20140;-69
2021/09/15 01:39:16;;;;;;;44.45;39.95;;;;;;;;;;5019387;28;20042;-69
2021/09/15 01:41:42;;;;;;;42.95;38.53;;;;;;;;;;5013000;28;20050;-69
2021/09/15 01:44:08;;;;;;;41.47;37.13;;;;;;;;;;5024358;28;20465;-69
2021/09/15 01:46:34;;;;;;;47.08;42.08;;;;;;;;;;5011736;28;20042;-69
2021/09/15 01:49:00;;;;;;;43.83;39.22;;;;;;;;;;5024583;28;20041;-69
2021/09/15 01:51:26;;;;;;;41.50;37.05;;;;;;;;;;5019219;28;20464;-69
2021/09/15 01:53:52;;;;;;;41.67;37.70;;;;;;;;;;5017752;28;20116;-69
2021/09/15 01:56:18;;;;;;;49.00;43.83;;;;;;;;;;5011922;28;20081;-69
2021/09/15 01:58:44;;;;;;;46.08;40.17;;;;;;;;;;5024323;28;20049;-69
2021/09/15 02:01:10;;;;;;;41.63;37.42;;;;;;;;;;5015590;28;20502;-69
2021/09/15 02:03:36;;;;;;;48.13;42.63;;;;;;;;;;5016585;28;20046;-69
2021/09/15 02:06:02;;;;;;;41.15;36.80;;;;;;;;;;5012340;28;20778;-69
2021/09/15 02:08:28;;;;;;;40.92;36.95;;;;;;;;;;5018610;28;20064;-69
2021/09/15 02:10:54;;;;;;;41.03;37.03;;;;;;;;;;5012868;28;20121;-69
2021/09/15 02:13:21;;;;;;;41.55;37.15;;;;;;;;;;5012660;28;20114;-69
2021/09/15 02:15:47;;;;;;;41.45;37.17;;;;;;;;;;5023665;28;20099;-69
2021/09/15 02:18:13;;;;;;;45.60;40.90;;;;;;;;;;5017040;28;20038;-69
2021/09/15 02:20:39;;;;;;;44.25;39.90;;;;;;;;;;5017346;28;20049;-69
2021/09/15 02:23:05;;;;;;;51.30;45.72;;;;;;;;;;5017036;28;20156;-69
2021/09/15 02:25:31;;;;;;;46.50;41.38;;;;;;;;;;5019815;28;20033;-69
2021/09/15 02:27:57;;;;;;;45.30;39.75;;;;;;;;;;5009011;28;20046;-68
2021/09/15 02:30:23;;;;;;;43.50;39.22;;;;;;;;;;5027146;28;20041;-68
2021/09/15 02:32:50;;;;;;;45.10;40.25;;;;;;;;;;5016795;28;20052;-68
2021/09/15 02:35:16;;;;;;;44.13;39.42;;;;;;;;;;5021130;28;20497;-69
2021/09/15 02:37:42;;;;;;;47.55;42.58;;;;;;;;;;5016597;28;20037;-69
2021/09/15 02:40:08;;;;;;;44.88;39.40;;;;;;;;;;5015123;28;20478;-69
2021/09/15 02:42:34;;;;;;;40.67;36.72;;;;;;;;;;5018284;28;20038;-69
2021/09/15 02:45:00;;;;;;;45.00;40.35;;;;;;;;;;5018101;28;20045;-69
2021/09/15 02:47:26;;;;;;;53.60;45.53;;;;;;;;;;5009161;28;20121;-69
2021/09/15 02:49:52;;;;;;;45.80;41.15;;;;;;;;;;5023023;28;20045;-69
2021/09/15 02:52:18;;;;;;;48.97;41.05;;;;;;;;;;5021822;28;20041;-69
2021/09/15 02:54:44;;;;;;;45.20;40.45;;;;;;;;;;5008795;28;20049;-69
2021/09/15 02:57:10;;;;;;;44.72;40.20;;;;;;;;;;5020467;28;20102;-69
2021/09/15 02:59:36;;;;;;;40.38;35.92;;;;;;;;;;5018280;28;20061;-68
2021/09/15 03:02:02;;;;;;;42.72;38.17;;;;;;;;;;5025248;28;20057;-68
2021/09/15 03:04:28;;;;;;;40.95;36.75;;;;;;;;;;5013694;28;20045;-68
2021/09/15 03:06:54;;;;;;;45.47;40.72;;;;;;;;;;5024292;28;20042;-68
2021/09/15 03:09:20;;;;;;;56.88;46.28;;;;;;;;;;5028164;28;20045;-68
2021/09/15 03:11:46;;;;;;;51.80;44.40;;;;;;;;;;5017740;28;20041;-68
2021/09/15 03:14:13;;;;;;;41.30;37.05;;;;;;;;;;5009316;28;20128;-68
2021/09/15 03:16:39;;;;;;;40.10;36.13;;;;;;;;;;5017692;28;20029;-68
2021/09/15 03:19:05;;;;;;;40.88;36.78;;;;;;;;;;5009954;28;20045;-68
2021/09/15 03:21:31;;;;;;;40.08;35.83;;;;;;;;;;5019143;28;20080;-68
2021/09/15 03:23:57;;;;;;;39.80;35.80;;;;;;;;;;5009302;28;20518;-68
2021/09/15 03:26:23;;;;;;;53.65;41.92;;;;;;;;;;5020239;28;20056;-68
2021/09/15 03:28:49;;;;;;;44.35;38.83;;;;;;;;;;5019353;28;20042;-68
2021/09/15 03:31:15;;;;;;;87.88;50.42;;;;;;;;;;5009227;28;20092;-68
2021/09/15 03:33:44;;;;;;;39.72;35.70;;;;;;;;;;5022514;28;20390;-68
2021/09/15 03:36:16;;;;;;;56.33;44.75;;;;;;;;;;5013884;28;20046;-68
2021/09/15 03:38:48;;;;;;;40.97;36.70;;;;;;;;;;5012886;28;20081;-68
2021/09/15 03:41:17;;;;;;;41.65;37.00;;;;;;;;;;5009499;28;20108;-68
2021/09/15 03:43:43;;;;;;;46.33;41.10;;;;;;;;;;5021790;28;20162;-68
2021/09/15 03:46:09;;;;;;;43.10;38.45;;;;;;;;;;5010711;28;20046;-68
2021/09/15 03:48:35;;;;;;;53.80;43.47;;;;;;;;;;5023270;28;20054;-68
2021/09/15 03:51:02;;;;;;;67.15;47.10;;;;;;;;;;5016408;28;20045;-68
2021/09/15 03:53:28;;;;;;;74.65;47.15;;;;;;;;;;5015357;28;20045;-68
2021/09/15 03:55:54;;;;;;;50.75;43.25;;;;;;;;;;5013521;28;20045;-69
2021/09/15 03:58:20;;;;;;;45.63;40.72;;;;;;;;;;5021998;28;20128;-69
2021/09/15 04:00:46;;;;;;;50.92;41.15;;;;;;;;;;5018685;28;20450;-68
2021/09/15 04:03:12;;;;;;;45.65;40.67;;;;;;;;;;5024908;28;20475;-68
2021/09/15 04:05:38;;;;;;;47.08;40.90;;;;;;;;;;5012531;28;22229;-68
2021/09/15 04:08:04;;;;;;;43.70;38.90;;;;;;;;;;5027464;28;20483;-68
2021/09/15 04:10:31;;;;;;;43.78;39.08;;;;;;;;;;5019500;28;20042;-68
2021/09/15 04:12:57;;;;;;;61.85;46.42;;;;;;;;;;5015498;28;20029;-68
2021/09/15 04:15:23;;;;;;;49.63;41.88;;;;;;;;;;5013840;28;20513;-68
2021/09/15 04:17:49;;;;;;;47.40;39.63;;;;;;;;;;5012720;28;20038;-68
2021/09/15 04:20:15;;;;;;;58.67;46.28;;;;;;;;;;5017140;28;20042;-68
2021/09/15 04:22:42;;;;;;;49.78;43.17;;;;;;;;;;5016125;28;20470;-68
2021/09/15 04:33:22;;;;;;;81.57;47.65;;;;;;;;;;5013161;28;19928;-68
2021/09/15 04:35:48;;;;;;;39.65;35.47;;;;;;;;;;5027248;28;20489;-68
2021/09/15 04:38:15;;;;;;;43.00;37.30;;;;;;;;;;5011457;28;20038;-68
2021/09/15 04:40:41;;;;;;;52.10;41.42;;;;;;;;;;5019407;28;20052;-68
2021/09/15 04:43:07;;;;;;;47.60;39.47;;;;;;;;;;5012961;28;20433;-68
2021/09/15 04:45:33;;;;;;;54.08;40.45;;;;;;;;;;5015170;28;20502;-68
2021/09/15 04:47:59;;;;;;;41.78;37.28;;;;;;;;;;5011926;28;20068;-68
2021/09/15 04:50:25;;;;;;;38.78;34.88;;;;;;;;;;5020673;28;20112;-68
2021/09/15 04:52:51;;;;;;;50.15;39.08;;;;;;;;;;5012394;28;20091;-68
2021/09/15 04:55:17;;;;;;;43.88;37.78;;;;;;;;;;5017525;28;20041;-68
2021/09/15 04:57:43;;;;;;;110.45;51.63;;;;;;;;;;5012948;28;20042;-68
2021/09/15 05:00:10;;;;;;;69.70;46.83;;;;;;;;;;5018220;28;20056;-68
2021/09/15 05:02:36;;;;;;;98.35;51.78;;;;;;;;;;5015303;28;20057;-68
2021/09/15 05:05:02;;;;;;;78.25;53.35;;;;;;;;;;5014957;28;20062;-68
2021/09/15 05:07:28;;;;;;;88.57;52.47;;;;;;;;;;5020782;28;20343;-68
2021/09/15 05:09:54;;;;;;;271.02;79.30;;;;;;;;;;5012177;28;20030;-68
2021/09/15 05:12:20;;;;;;;91.50;55.17;;;;;;;;;;5015731;28;20044;-68
2021/09/15 05:14:46;;;;;;;52.45;44.05;;;;;;;;;;5012136;28;20050;-68
2021/09/15 05:17:12;;;;;;;51.53;45.45;;;;;;;;;;5017570;28;20048;-68
2021/09/15 05:19:38;;;;;;;54.38;44.72;;;;;;;;;;5015318;28;20052;-69
2021/09/15 05:22:04;;;;;;;80.05;53.22;;;;;;;;;;5035684;28;20348;-68
2021/09/15 05:24:30;;;;;;;59.97;46.65;;;;;;;;;;5011945;28;20084;-68
2021/09/15 05:26:57;;;;;;;109.50;57.47;;;;;;;;;;5019051;28;20052;-68
2021/09/15 05:29:23;;;;;;;78.18;52.10;;;;;;;;;;5013066;28;20119;-68
2021/09/15 05:31:49;;;;;;;49.75;43.03;;;;;;;;;;5017349;28;20046;-68
2021/09/15 05:34:15;;;;;;;46.05;41.00;;;;;;;;;;5012463;28;20034;-68
2021/09/15 05:36:41;;;;;;;61.83;47.60;;;;;;;;;;5015586;28;20479;-68
2021/09/15 05:39:07;;;;;;;73.03;55.00;;;;;;;;;;5011090;28;20049;-68
2021/09/15 05:41:33;;;;;;;113.18;64.90;;;;;;;;;;5017405;28;20045;-68
2021/09/15 05:43:59;;;;;;;70.80;55.92;;;;;;;;;;5017004;28;20111;-68
2021/09/15 05:46:25;;;;;;;84.65;56.47;;;;;;;;;;5019367;28;20119;-68
2021/09/15 05:48:51;;;;;;;217.70;76.65;;;;;;;;;;5020523;28;20104;-68
2021/09/15 05:51:17;;;;;;;69.45;54.90;;;;;;;;;;5012994;28;20041;-68
2021/09/15 05:53:43;;;;;;;69.88;54.05;;;;;;;;;;5025484;28;20041;-68
2021/09/15 05:56:09;;;;;;;137.63;68.63;;;;;;;;;;5014552;28;20107;-68
2021/09/15 05:58:35;;;;;;;161.57;71.30;;;;;;;;;;5024779;28;20057;-68
2021/09/15 06:01:01;;;;;;;149.00;75.82;;;;;;;;;;5019541;28;20057;-68
2021/09/15 06:03:27;;;;;;;86.60;61.05;;;;;;;;;;5008046;28;20057;-69
2021/09/15 06:05:54;;;;;;;116.15;67.82;;;;;;;;;;5013303;28;20049;-68
2021/09/15 06:08:20;;;;;;;81.63;57.25;;;;;;;;;;5024184;28;20308;-68
2021/09/15 06:10:46;;;;;;;114.47;66.78;;;;;;;;;;5001586;28;20108;-68
2021/09/15 06:13:12;;;;;;;109.13;66.78;;;;;;;;;;5024242;28;20359;-68
2021/09/15 06:15:38;;;;;;;95.00;61.13;;;;;;;;;;5014005;28;20133;-68
2021/09/15 06:18:04;;;;;;;81.10;55.58;;;;;;;;;;5019201;28;20496;-68
2021/09/15 06:20:30;;;;;;;68.32;50.60;;;;;;;;;;5023399;28;20367;-68
2021/09/15 06:22:56;;;;;;;65.40;50.03;;;;;;;;;;5007802;28;20041;-68
2021/09/15 06:25:24;;;;;;;70.50;52.72;;;;;;;;;;5022693;28;20053;-68
2021/09/15 06:27:51;;;;;;;188.93;72.72;;;;;;;;;;5011522;28;20452;-68
2021/09/15 06:30:17;;;;;;;92.43;58.63;;;;;;;;;;5032953;28;20053;-68
2021/09/15 06:32:44;;;;;;;88.13;55.92;;;;;;;;;;5009062;28;20121;-68
2021/09/15 06:35:13;;;;;;;109.13;57.75;;;;;;;;;;5020707;28;20108;-68
2021/09/15 06:37:39;;;;;;;97.35;60.85;;;;;;;;;;5015992;28;20053;-68
2021/09/15 06:40:06;;;;;;;113.30;63.45;;;;;;;;;;5026115;28;20508;-68
2021/09/15 06:42:32;;;;;;;74.40;53.53;;;;;;;;;;5017556;28;20037;-68
2021/09/15 06:44:58;;;;;;;99.93;60.33;;;;;;;;;;5020565;28;20187;-68
2021/09/15 06:47:24;;;;;;;97.22;60.13;;;;;;;;;;5019527;28;20056;-68
2021/09/15 06:49:50;;;;;;;90.50;57.90;;;;;;;;;;5025829;28;20482;-68
2021/09/15 06:52:16;;;;;;;89.30;57.92;;;;;;;;;;5013505;28;20084;-68
2021/09/15 06:54:45;;;;;;;89.32;60.28;;;;;;;;;;5024147;28;20518;-68
2021/09/15 06:57:11;;;;;;;161.60;74.25;;;;;;;;;;5020588;28;20358;-68
2021/09/15 06:59:37;;;;;;;119.10;68.03;;;;;;;;;;5025280;28;20044;-68
2021/09/15 07:02:03;;;;;;;132.20;68.38;;;;;;;;;;5023960;28;20042;-68
2021/09/15 07:04:29;;;;;;;156.82;74.90;;;;;;;;;;5019258;28;20045;-68
2021/09/15 07:06:55;;;;;;;116.70;69.32;;;;;;;;;;5020697;28;20061;-68
2021/09/15 07:09:21;;;;;;;102.93;63.28;;;;;;;;;;5014197;28;20045;-68
2021/09/15 07:11:47;;;;;;;96.72;64.68;;;;;;;;;;5029272;28;20069;-68
2021/09/15 07:14:13;;;;;;;96.00;64.00;;;;;;;;;;5019080;28;20526;-68
2021/09/15 07:16:40;;;;;;;94.28;64.20;;;;;;;;;;5022762;28;20097;-68
2021/09/15 07:19:06;;;;;;;130.52;71.85;;;;;;;;;;5018023;28;20051;-68
2021/09/15 07:21:32;;;;;;;113.40;66.28;;;;;;;;;;5021026;28;20049;-68
2021/09/15 07:23:58;;;;;;;120.70;70.13;;;;;;;;;;5015172;28;20041;-68
2021/09/15 07:26:24;;;;;;;86.00;59.22;;;;;;;;;;5033001;28;20058;-68
2021/09/15 07:28:50;;;;;;;89.15;60.80;;;;;;;;;;5013064;28;20167;-68
2021/09/15 07:31:16;;;;;;;72.85;53.65;;;;;;;;;;5017188;28;20722;-68
2021/09/15 07:33:42;;;;;;;95.25;63.72;;;;;;;;;;5020155;28;20059;-68
2021/09/15 07:36:08;;;;;;;77.38;56.20;;;;;;;;;;5021630;28;20212;-68
2021/09/15 07:38:34;;;;;;;77.32;57.55;;;;;;;;;;5018208;28;20584;-68
2021/09/15 07:41:01;;;;;;;91.07;61.70;;;;;;;;;;5016661;28;20040;-68
2021/09/15 07:43:27;;;;;;;85.43;59.20;;;;;;;;;;5039235;28;20581;-68
2021/09/15 07:45:53;;;;;;;81.60;57.97;;;;;;;;;;5018470;28;20521;-68
2021/09/15 07:48:19;;;;;;;74.53;56.10;;;;;;;;;;5025180;28;20439;-68
2021/09/15 07:50:45;;;;;;;67.85;51.83;;;;;;;;;;5022018;28;20043;-68
2021/09/15 07:53:11;;;;;;;63.72;51.55;;;;;;;;;;5019688;28;20494;-68
2021/09/15 07:55:38;;;;;;;64.03;50.28;;;;;;;;;;5020009;28;20125;-68
2021/09/15 07:58:04;;;;;;;65.28;50.05;;;;;;;;;;5027505;28;20034;-68
2021/09/15 08:00:30;;;;;;;61.55;50.40;;;;;;;;;;5016891;28;20410;-68
2021/09/15 08:02:56;;;;;;;56.17;48.55;;;;;;;;;;5023167;28;20579;-67
2021/09/15 08:05:22;;;;;;;69.28;53.60;;;;;;;;;;5018638;28;20152;-67
2021/09/15 08:07:49;;;;;;;61.10;50.80;;;;;;;;;;5015414;28;20128;-67
2021/09/15 08:10:15;;;;;;;64.03;50.40;;;;;;;;;;5011051;28;20072;-67
2021/09/15 08:12:42;;;;;;;60.38;49.75;;;;;;;;;;5021014;28;20034;-67
2021/09/15 08:15:08;;;;;;;60.40;50.60;;;;;;;;;;5012719;28;20041;-67
2021/09/15 08:17:34;;;;;;;62.50;51.17;;;;;;;;;;5020551;28;20037;-67
2021/09/15 08:20:01;;;;;;;59.28;48.55;;;;;;;;;;5025066;28;20057;-67
2021/09/15 08:22:27;;;;;;;53.50;47.67;;;;;;;;;;5017011;28;20057;-67
2021/09/15 08:24:53;;;;;;;54.78;46.45;;;;;;;;;;5017487;28;20044;-67
2021/09/15 08:27:19;;;;;;;55.75;48.45;;;;;;;;;;5012085;28;20045;-67
2021/09/15 08:29:45;;;;;;;56.88;48.42;;;;;;;;;;5023156;28;20053;-67
2021/09/15 08:32:11;;;;;;;56.22;48.28;;;;;;;;;;5013713;28;20048;-67
2021/09/15 08:34:37;;;;;;;58.28;49.63;;;;;;;;;;5027338;28;20034;-67
2021/09/15 08:37:03;;;;;;;54.88;48.50;;;;;;;;;;5020558;28;20128;-67
2021/09/15 08:39:29;;;;;;;54.63;48.88;;;;;;;;;;5020959;28;20044;-67
2021/09/15 08:41:55;;;;;;;52.10;46.45;;;;;;;;;;5012709;28;20092;-67
2021/09/15 08:44:21;;;;;;;52.35;46.55;;;;;;;;;;5025167;28;20054;-67
2021/09/15 08:46:48;;;;;;;50.92;45.15;;;;;;;;;;5014417;28;20044;-67
2021/09/15 08:49:15;;;;;;;51.22;44.97;;;;;;;;;;5021202;28;20482;-67
2021/09/15 08:51:41;;;;;;;51.58;45.92;;;;;;;;;;5011488;28;20037;-67
2021/09/15 08:54:10;;;;;;;49.20;43.65;;;;;;;;;;5014899;28;20100;-67
2021/09/15 08:56:36;;;;;;;47.10;42.05;;;;;;;;;;5021831;28;20037;-67
2021/09/15 08:59:02;;;;;;;50.40;44.30;;;;;;;;;;5020829;28;20497;-68
2021/09/15 09:01:28;;;;;;;48.45;41.33;;;;;;;;;;5020610;28;20053;-68
2021/09/15 09:03:55;;;;;;;43.13;38.47;;;;;;;;;;5020800;28;20061;-68
2021/09/15 09:06:26;;;;;;;43.08;38.45;;;;;;;;;;5022902;28;20069;-68
2021/09/15 09:08:53;;;;;;;42.55;37.92;;;;;;;;;;5012479;28;20045;-68
2021/09/15 09:11:23;;;;;;;40.63;36.33;;;;;;;;;;5026088;28;20041;-68
2021/09/15 09:13:51;;;;;;;41.85;37.45;;;;;;;;;;5012114;28;20038;-68
2021/09/15 09:16:21;;;;;;;37.40;33.72;;;;;;;;;;5020219;28;20042;-68
2021/09/15 09:18:57;;;;;;;36.72;32.85;;;;;;;;;;5011677;28;20560;-68
2021/09/15 09:21:24;;;;;;;35.45;31.92;;;;;;;;;;5014363;28;20141;-68
2021/09/15 09:23:50;;;;;;;33.92;30.35;;;;;;;;;;5009584;28;20550;-68
2021/09/15 09:26:16;;;;;;;37.75;33.97;;;;;;;;;;5019313;28;20075;-68
2021/09/15 09:28:44;;;;;;;36.60;32.92;;;;;;;;;;5010233;28;20038;-68
2021/09/15 09:31:11;;;;;;;36.30;32.67;;;;;;;;;;5026442;28;20045;-67
2021/09/15 09:33:37;;;;;;;35.92;32.15;;;;;;;;;;5018973;28;20053;-67
2021/09/15 09:36:07;;;;;;;34.53;31.02;;;;;;;;;;5021377;28;20041;-67
2021/09/15 09:38:36;;;;;;;35.75;32.15;;;;;;;;;;5021109;28;20123;-68
2021/09/15 09:41:04;;;;;;;35.75;31.95;;;;;;;;;;5028497;28;20364;-67
2021/09/15 09:43:50;;;;;;;37.88;33.97;;;;;;;;;;5015025;28;20124;-67
2021/09/15 09:46:19;;;;;;;35.92;32.22;;;;;;;;;;5016181;28;20491;-67
2021/09/15 09:48:46;;;;;;;35.55;32.08;;;;;;;;;;5011642;28;20049;-67
2021/09/15 09:51:21;;;;;;;38.28;34.30;;;;;;;;;;5022998;28;20390;-68
2021/09/15 09:53:48;;;;;;;36.35;32.70;;;;;;;;;;5019906;28;20406;-68
2021/09/15 09:56:14;;;;;;;39.10;35.08;;;;;;;;;;5023481;28;20038;-68
2021/09/15 09:58:43;;;;;;;35.88;32.17;;;;;;;;;;5025719;28;20042;-67
2021/09/15 10:01:12;;;;;;;36.72;32.95;;;;;;;;;;5017020;28;20112;-67
2021/09/15 10:03:40;;;;;;;38.22;34.38;;;;;;;;;;5019033;28;20104;-67
2021/09/15 10:06:07;;;;;;;37.83;33.80;;;;;;;;;;5021318;28;20085;-67
2021/09/15 10:08:35;;;;;;;39.17;35.28;;;;;;;;;;5025171;28;20616;-67
2021/09/15 10:11:01;;;;;;;36.30;32.72;;;;;;;;;;5017505;28;20116;-67
2021/09/15 10:13:27;;;;;;;38.97;35.03;;;;;;;;;;5026489;28;20462;-67
2021/09/15 10:15:58;;;;;;;37.88;34.08;;;;;;;;;;5011994;28;20041;-67
2021/09/15 10:18:25;;;;;;;35.95;32.38;;;;;;;;;;5017290;28;20064;-67
2021/09/15 10:20:54;;;;;;;37.63;33.95;;;;;;;;;;5016511;28;20136;-67
2021/09/15 10:23:33;;;;;;;37.97;34.17;;;;;;;;;;5012794;28;20046;-67
2021/09/15 10:25:59;;;;;;;36.92;33.13;;;;;;;;;;5015943;28;20045;-67
2021/09/15 10:28:25;;;;;;;36.08;32.35;;;;;;;;;;5016933;28;20084;-67
2021/09/15 10:30:54;;;;;;;35.78;32.05;;;;;;;;;;5010286;28;20623;-67
2021/09/15 10:33:38;;;;;;;35.30;32.03;;;;;;;;;;5015329;28;20582;-67
2021/09/15 10:36:14;;;;;;;32.42;29.15;;;;;;;;;;5008824;28;20077;-67
2021/09/15 10:38:53;;;;;;;33.90;30.60;;;;;;;;;;5014680;28;20187;-67
2021/09/15 10:41:31;;;;;;;34.00;30.70;;;;;;;;;;5008541;28;20560;-67
2021/09/15 10:44:04;;;;;;;35.53;32.05;;;;;;;;;;5015901;28;20034;-67
2021/09/15 10:46:30;;;;;;;34.30;30.83;;;;;;;;;;5018267;28;20045;-67
2021/09/15 10:49:15;;;;;;;33.92;30.63;;;;;;;;;;5021073;28;20486;-67
2021/09/15 10:51:41;;;;;;;34.47;30.80;;;;;;;;;;5014503;28;20454;-67
2021/09/15 10:54:27;;;;;;;35.80;32.05;;;;;;;;;;5015354;28;20401;-67
2021/09/15 10:57:13;;;;;;;35.22;31.85;;;;;;;;;;4999115;28;20458;-67
2021/09/15 10:59:53;;;;;;;35.83;32.10;;;;;;;;;;5026708;28;20051;-67
2021/09/15 11:02:28;;;;;;;34.75;31.30;;;;;;;;;;5011460;28;20061;-67
2021/09/15 11:04:55;;;;;;;35.35;31.75;;;;;;;;;;5013816;28;20406;-67
2021/09/15 11:07:40;;;;;;;34.22;30.77;;;;;;;;;;5011291;28;20060;-66
2021/09/15 11:10:07;;;;;;;36.05;32.25;;;;;;;;;;5025994;28;20123;-66
2021/09/15 11:12:43;;;;;;;33.95;30.55;;;;;;;;;;5015689;28;20038;-66
2021/09/15 11:15:26;;;;;;;34.72;31.20;;;;;;;;;;5019508;28;20048;-66
2021/09/15 11:17:52;;;;;;;43.15;37.75;;;;;;;;;;5009642;28;20037;-66
2021/09/15 11:20:19;;;;;;;45.13;39.88;;;;;;;;;;5026933;28;20102;-66
2021/09/15 11:22:47;;;;;;;51.95;42.15;;;;;;;;;;5014286;28;20416;-66
2021/09/15 11:25:16;;;;;;;50.13;43.28;;;;;;;;;;5019101;28;20129;-66
2021/09/15 11:27:42;;;;;;;46.92;41.83;;;;;;;;;;5017542;28;21709;-66
2021/09/15 11:30:09;;;;;;;51.50;45.95;;;;;;;;;;5015891;28;20045;-66
2021/09/15 11:32:35;;;;;;;49.75;44.33;;;;;;;;;;5015648;28;20038;-66
2021/09/15 11:35:01;;;;;;;48.10;42.25;;;;;;;;;;5014317;28;20120;-66
2021/09/15 11:37:31;;;;;;;50.35;42.30;;;;;;;;;;5014525;28;20132;-66
2021/09/15 11:39:59;;;;;;;49.60;43.83;;;;;;;;;;5017781;28;20045;-66
2021/09/15 11:42:26;;;;;;;53.25;42.78;;;;;;;;;;5016827;28;20038;-66
2021/09/15 11:44:52;;;;;;;47.55;41.65;;;;;;;;;;5013153;28;20107;-66
2021/09/15 11:47:28;;;;;;;44.63;39.75;;;;;;;;;;5012077;28;20184;-66
2021/09/15 11:49:54;;;;;;;43.05;38.33;;;;;;;;;;5019496;28;20041;-66
2021/09/15 11:52:21;;;;;;;40.50;35.25;;;;;;;;;;5017987;28;20065;-66
2021/09/15 11:54:51;;;;;;;38.00;33.03;;;;;;;;;;5007108;28;20058;-66
2021/09/15 11:57:18;;;;;;;37.10;31.98;;;;;;;;;;5015123;28;20095;-66
2021/09/15 11:59:44;;;;;;;37.85;32.38;;;;;;;;;;5015765;28;20152;-67
2021/09/15 12:02:11;;;;;;;34.75;30.63;;;;;;;;;;5020845;28;20050;-67
2021/09/15 12:04:40;;;;;;;32.25;28.85;;;;;;;;;;5007839;28;20140;-66
2021/09/15 12:07:07;;;;;;;30.92;27.63;;;;;;;;;;5014897;28;20077;-66
2021/09/15 12:09:35;;;;;;;29.70;26.45;;;;;;;;;;5012770;28;20076;-67
2021/09/15 12:12:05;;;;;;;28.70;25.50;;;;;;;;;;5014386;28;20048;-67
2021/09/15 12:14:32;;;;;;;29.05;25.75;;;;;;;;;;5011847;28;24363;-67
2021/09/15 12:17:04;;;;;;;29.83;24.02;;;;;;;;;;5021952;28;20069;-67
2021/09/15 12:19:30;;;;;;;27.50;24.10;;;;;;;;;;5012420;28;20053;-67
2021/09/15 12:21:56;;;;;;;27.90;24.85;;;;;;;;;;5018991;28;21709;-67
2021/09/15 12:24:23;;;;;;;25.98;23.38;;;;;;;;;;5015107;28;20045;-67
2021/09/15 12:26:49;;;;;;;27.88;24.92;;;;;;;;;;5022449;28;20524;-67
2021/09/15 12:29:17;;;;;;;28.13;24.70;;;;;;;;;;5019874;28;20461;-67
2021/09/15 12:31:46;;;;;;;25.63;22.90;;;;;;;;;;5013061;28;20472;-67
2021/09/15 12:34:13;;;;;;;23.48;20.90;;;;;;;;;;5017654;28;20537;-67
2021/09/15 12:36:39;;;;;;;23.58;21.08;;;;;;;;;;5012124;28;20029;-67
2021/09/15 12:39:15;;;;;;;21.58;19.35;;;;;;;;;;5019808;28;20049;-67
2021/09/15 12:41:58;;;;;;;19.88;17.77;;;;;;;;;;5017346;28;20033;-67
2021/09/15 12:44:33;;;;;;;18.08;16.27;;;;;;;;;;5027550;28;20045;-67
2021/09/15 12:47:03;;;;;;;17.80;16.00;;;;;;;;;;5014234;28;20034;-67
2021/09/15 12:49:40;;;;;;;18.85;16.90;;;;;;;;;;5019625;28;20037;-67
2021/09/15 12:52:08;;;;;;;21.27;19.08;;;;;;;;;;5020093;28;20426;-68
2021/09/15 12:54:34;;;;;;;23.85;21.38;;;;;;;;;;5029055;28;20099;-68
2021/09/15 12:57:14;;;;;;;23.95;21.60;;;;;;;;;;5021459;28;20033;-68
2021/09/15 12:59:41;;;;;;;22.50;20.17;;;;;;;;;;5025302;28;20038;-68
2021/09/15 13:02:16;;;;;;;20.58;18.50;;;;;;;;;;5021012;28;20057;-68
2021/09/15 13:04:42;;;;;;;20.88;18.83;;;;;;;;;;5023726;28;20041;-68
2021/09/15 13:07:08;;;;;;;21.02;18.95;;;;;;;;;;5017551;28;20456;-68
2021/09/15 13:09:34;;;;;;;19.60;17.08;;;;;;;;;;5012794;28;20137;-68
2021/09/15 13:12:00;;;;;;;19.55;17.48;;;;;;;;;;5011546;28;20030;-68
2021/09/15 13:14:26;;;;;;;18.77;17.08;;;;;;;;;;5021317;28;20326;-68
2021/09/15 13:16:52;;;;;;;18.63;16.92;;;;;;;;;;5009113;28;20045;-68
2021/09/15 13:19:18;;;;;;;19.88;18.02;;;;;;;;;;5031358;28;20100;-68
2021/09/15 13:21:45;;;;;;;20.08;18.15;;;;;;;;;;5031319;28;20034;-68
2021/09/15 13:24:11;;;;;;;19.10;17.40;;;;;;;;;;5018467;28;20037;-72
2021/09/15 13:26:37;;;;;;;17.13;15.57;;;;;;;;;;5022167;28;20044;-68
2021/09/15 13:29:03;;;;;;;18.08;16.33;;;;;;;;;;5024461;28;20041;-68
2021/09/15 13:31:29;;;;;;;17.42;15.75;;;;;;;;;;5022479;28;20121;-68
2021/09/15 13:33:55;;;;;;;17.80;16.23;;;;;;;;;;5014297;28;20401;-68
2021/09/15 13:36:21;;;;;;;17.00;15.60;;;;;;;;;;5024778;28;20505;-68
2021/09/15 13:38:47;;;;;;;17.75;16.00;;;;;;;;;;5015491;28;20494;-68
2021/09/15 13:41:13;;;;;;;17.45;15.90;;;;;;;;;;5032846;28;20164;-68
2021/09/15 13:43:39;;;;;;;15.93;14.02;;;;;;;;;;5016573;28;20103;-68
2021/09/15 13:46:05;;;;;;;15.02;13.63;;;;;;;;;;5023895;28;20084;-68
2021/09/15 13:48:32;;;;;;;13.90;12.50;;;;;;;;;;5018469;28;20073;-68
2021/09/15 13:50:58;;;;;;;14.57;13.18;;;;;;;;;;5029034;28;20449;-68
2021/09/15 13:53:24;;;;;;;14.48;13.20;;;;;;;;;;5007994;28;20041;-68
2021/09/15 13:55:50;;;;;;;13.27;12.18;;;;;;;;;;5019958;28;20048;-68
2021/09/15 13:58:16;;;;;;;14.45;13.15;;;;;;;;;;5019449;28;20037;-68
2021/09/15 14:00:42;;;;;;;11.98;10.90;;;;;;;;;;5018199;28;20168;-68
2021/09/15 14:03:08;;;;;;;10.70;9.80;;;;;;;;;;5024189;28;20099;-68
2021/09/15 14:05:34;;;;;;;9.30;8.40;;;;;;;;;;5008911;28;20447;-69
2021/09/15 14:08:00;;;;;;;9.10;8.23;;;;;;;;;;5015140;28;20445;-69
2021/09/15 14:10:26;;;;;;;8.70;7.97;;;;;;;;;;5006980;28;20120;-69
2021/09/15 14:12:52;;;;;;;9.00;8.10;;;;;;;;;;5013914;28;20037;-69
2021/09/15 14:15:19;;;;;;;9.93;9.02;;;;;;;;;;5010593;28;20061;-69
2021/09/15 14:17:45;;;;;;;9.10;8.30;;;;;;;;;;5015305;28;20037;-69
2021/09/15 14:20:11;;;;;;;10.40;8.27;;;;;;;;;;5011999;28;20513;-68
2021/09/15 14:22:37;;;;;;;8.00;7.30;;;;;;;;;;5020409;28;20509;-68
2021/09/15 14:25:03;;;;;;;7.65;6.95;;;;;;;;;;5008733;28;20045;-68